createdAt,value
2022-08-05T00:01:35.949Z,99055.66
2022-08-05T00:04:17.250Z,99053.09
2022-08-05T00:06:47.288Z,99053.47
2022-08-05T00:09:19.708Z,99053.38
2022-08-05T00:11:56.178Z,99046.00
2022-08-05T00:14:31.371Z,99042.31
2022-08-05T00:17:02.964Z,99042.09
2022-08-05T00:19:33.106Z,99047.53
2022-08-05T00:22:03.024Z,99039.66
2022-08-05T00:24:33.031Z,99043.34
2022-08-05T00:27:04.656Z,99047.00
2022-08-05T00:29:39.502Z,99059.28
2022-08-05T00:32:15.673Z,99064.06
2022-08-05T00:35:03.701Z,99065.97
2022-08-05T00:37:51.078Z,99066.38
2022-08-05T00:40:28.020Z,99057.81
2022-08-05T00:42:58.575Z,99058.97
2022-08-05T00:45:38.716Z,99061.25
2022-08-05T00:48:10.099Z,99055.22
2022-08-05T00:50:41.928Z,99056.75
2022-08-05T00:53:45.050Z,99052.34
2022-08-05T00:55:59.778Z,99049.28
2022-08-05T00:58:28.778Z,99046.53
2022-08-05T01:00:57.527Z,99034.69
2022-08-05T01:03:30.880Z,99041.81
2022-08-05T01:06:05.498Z,99056.81
2022-08-05T01:08:43.218Z,99076.38
2022-08-05T01:11:22.089Z,99070.34
2022-08-05T01:14:02.375Z,99078.81
2022-08-05T01:16:35.454Z,99094.69
2022-08-05T01:19:17.192Z,99094.38
2022-08-05T01:22:04.570Z,99097.03
2022-08-05T01:25:06.887Z,99102.56
2022-08-05T01:27:59.999Z,99117.09
2022-08-05T01:30:34.645Z,99153.53
2022-08-05T01:33:08.366Z,99179.28
2022-08-05T01:35:52.172Z,99202.47
2022-08-05T01:38:27.218Z,99233.38
2022-08-05T01:41:01.659Z,99238.13
2022-08-05T01:43:33.587Z,99230.53
2022-08-05T01:46:07.559Z,99226.50
2022-08-05T01:48:49.591Z,99214.22
2022-08-05T01:51:19.794Z,99245.13
2022-08-05T01:53:57.663Z,99267.34
2022-08-05T01:58:12.249Z,99298.91
2022-08-05T01:59:24.155Z,99302.53
2022-08-05T02:01:57.782Z,99194.19
2022-08-05T02:04:29.967Z,99125.13
2022-08-05T02:06:59.889Z,99131.91
2022-08-05T02:09:32.268Z,99120.19
2022-08-05T02:12:06.880Z,99056.81
2022-08-05T02:14:47.071Z,99056.25
2022-08-05T02:18:28.061Z,99095.19
2022-08-05T02:20:20.735Z,99100.91
2022-08-05T02:22:56.032Z,99090.47
2022-08-05T02:25:33.049Z,99098.28
2022-08-05T02:28:04.288Z,99115.75
2022-08-05T02:30:54.349Z,99109.63
2022-08-05T02:33:36.161Z,99094.84
2022-08-05T02:36:13.688Z,99101.22
2022-08-05T02:38:54.024Z,99103.59
2022-08-05T02:41:28.710Z,99116.44
2022-08-05T02:44:13.301Z,99123.31
2022-08-05T02:46:58.977Z,99131.13
2022-08-05T02:49:36.576Z,99143.13
2022-08-05T02:52:11.520Z,99162.75
2022-08-05T02:54:50.695Z,99172.47
2022-08-05T02:58:11.486Z,99172.03
2022-08-05T03:00:13.766Z,99167.13
2022-08-05T03:02:46.285Z,99160.25
2022-08-05T03:05:17.066Z,99152.94
2022-08-05T03:08:00.979Z,99157.50
2022-08-05T03:10:36.035Z,99164.31
2022-08-05T03:13:12.832Z,99158.56
2022-08-05T03:15:46.999Z,99143.47
2022-08-05T03:18:17.324Z,99139.47
2022-08-05T03:20:48.854Z,99132.44
2022-08-05T03:23:19.316Z,99120.72
2022-08-05T03:26:04.353Z,99107.16
2022-08-05T03:28:41.648Z,99084.91
2022-08-05T03:31:15.768Z,99079.66
2022-08-05T03:34:02.181Z,99044.88
2022-08-05T03:36:31.644Z,99034.38
2022-08-05T03:39:07.475Z,99033.44
2022-08-05T03:41:38.756Z,99013.81
2022-08-05T03:44:19.706Z,99028.88
2022-08-05T03:46:48.780Z,99056.50
2022-08-05T03:49:19.373Z,99073.22
2022-08-05T03:52:48.658Z,99054.25
2022-08-05T03:55:52.079Z,99048.41
2022-08-05T03:57:46.390Z,99078.81
2022-08-05T04:00:17.502Z,99054.50
2022-08-05T04:02:58.135Z,99059.97
2022-08-05T04:05:34.449Z,99075.22
2022-08-05T04:08:34.698Z,99077.13
2022-08-05T04:10:54.543Z,99064.91
2022-08-05T04:13:23.735Z,99068.53
2022-08-05T04:16:03.046Z,99076.72
2022-08-05T04:18:34.384Z,99088.25
2022-08-05T04:21:07.112Z,99077.28
2022-08-05T04:23:57.383Z,99072.25
2022-08-05T04:26:32.583Z,99071.38
2022-08-05T04:29:07.106Z,99083.59
2022-08-05T04:31:38.755Z,99094.19
2022-08-05T04:34:18.302Z,99088.06
2022-08-05T04:36:50.493Z,99084.91
2022-08-05T04:39:19.221Z,99091.31
2022-08-05T04:41:48.940Z,99103.03
2022-08-05T04:44:21.592Z,99110.47
2022-08-05T04:46:59.125Z,99109.63
2022-08-05T04:49:38.755Z,99121.34
2022-08-05T04:52:18.669Z,99107.88
2022-08-05T04:54:47.426Z,99117.63
2022-08-05T04:57:18.367Z,99111.31
2022-08-05T04:59:47.926Z,99122.09
2022-08-05T05:02:37.169Z,99128.69
2022-08-05T05:05:16.805Z,99125.25
2022-08-05T05:08:01.765Z,99122.47
2022-08-05T05:10:33.343Z,99112.94
2022-08-05T05:13:04.372Z,99110.75
2022-08-05T05:15:56.763Z,99120.38
2022-08-05T05:18:28.720Z,99115.06
2022-08-05T05:21:03.093Z,99117.72
2022-08-05T05:23:39.219Z,99120.94
2022-08-05T05:26:28.593Z,99146.59
2022-08-05T05:29:02.716Z,99146.78
2022-08-05T05:31:46.383Z,99145.34
2022-08-05T05:34:15.523Z,99129.72
2022-08-05T05:36:45.641Z,99129.34
2022-08-05T05:39:19.285Z,99130.19
2022-08-05T05:41:54.527Z,99135.63
2022-08-05T05:44:36.789Z,99136.88
2022-08-05T05:47:21.293Z,99128.69
2022-08-05T05:49:56.817Z,99128.78
2022-08-05T05:52:33.177Z,99132.97
2022-08-05T05:55:13.385Z,99133.75
2022-08-05T05:57:52.875Z,99153.28
2022-08-05T06:00:31.349Z,99143.16
2022-08-05T06:03:40.867Z,99154.81
2022-08-05T06:05:54.089Z,99156.41
2022-08-05T06:08:32.422Z,99147.84
2022-08-05T06:11:03.063Z,99152.31
2022-08-05T06:13:40.896Z,99160.41
2022-08-05T06:16:30.286Z,99155.66
2022-08-05T06:19:02.029Z,99157.66
2022-08-05T06:21:37.603Z,99156.91
2022-08-05T06:24:11.736Z,99159.66
2022-08-05T06:26:52.280Z,99167.84
2022-08-05T06:29:46.847Z,99168.13
2022-08-05T06:32:25.565Z,99175.69
2022-08-05T06:34:58.770Z,99171.41
2022-08-05T06:37:55.645Z,99183.88
2022-08-05T06:40:20.934Z,99181.31
2022-08-05T06:42:52.738Z,99191.22
2022-08-05T06:46:02.915Z,99186.25
2022-08-05T06:48:47.060Z,99195.41
2022-08-05T06:51:00.088Z,99203.41
2022-08-05T06:53:29.438Z,99196.38
2022-08-05T06:55:59.646Z,99206.94
2022-08-05T06:58:36.528Z,99206.09
2022-08-05T07:01:07.523Z,99219.06
2022-08-05T07:03:36.235Z,99217.44
2022-08-05T07:06:14.384Z,99213.91
2022-08-05T07:08:48.020Z,99209.53
2022-08-05T07:11:25.148Z,99222.00
2022-08-05T07:14:15.855Z,99221.16
2022-08-05T07:18:00.823Z,99222.41
2022-08-05T07:20:31.396Z,99227.84
2022-08-05T07:22:36.946Z,99235.00
2022-08-05T07:25:21.697Z,99238.59
2022-08-05T07:27:57.400Z,99244.50
2022-08-05T07:30:34.534Z,99242.03
2022-08-05T07:33:10.558Z,99256.69
2022-08-05T07:36:02.438Z,99259.75
2022-08-05T07:38:43.466Z,99261.13
2022-08-05T07:42:12.847Z,99273.38
2022-08-05T07:44:14.149Z,99276.66
2022-08-05T07:46:50.402Z,99285.47
2022-08-05T07:49:20.455Z,99291.00
2022-08-05T07:51:54.548Z,99291.47
2022-08-05T07:54:31.082Z,99289.97
2022-08-05T07:57:17.678Z,99305.56
2022-08-05T07:59:51.390Z,99312.41
2022-08-05T08:02:26.576Z,99304.16
2022-08-05T08:05:00.336Z,99311.22
2022-08-05T08:07:39.786Z,99317.91
2022-08-05T08:10:20.813Z,99322.03
2022-08-05T08:12:50.031Z,99317.66
2022-08-05T08:15:37.184Z,99332.03
2022-08-05T08:18:13.932Z,99332.16
2022-08-05T08:21:01.907Z,99332.81
2022-08-05T08:24:02.126Z,99330.91
2022-08-05T08:26:29.829Z,99336.81
2022-08-05T08:29:21.665Z,99336.81
2022-08-05T08:31:49.146Z,99338.53
2022-08-05T08:34:30.475Z,99342.41
2022-08-05T08:37:04.662Z,99348.72
2022-08-05T08:39:37.815Z,99363.94
2022-08-05T08:42:27.543Z,99367.38
2022-08-05T08:45:23.346Z,99364.88
2022-08-05T08:48:05.918Z,99367.63
2022-08-05T08:51:04.084Z,99373.19
2022-08-05T08:53:36.619Z,99377.66
2022-08-05T08:56:06.340Z,99381.56
2022-08-05T08:58:43.332Z,99382.72
2022-08-05T09:01:18.193Z,99383.28
2022-08-05T09:03:52.830Z,99396.84
2022-08-05T09:06:29.279Z,99384.16
2022-08-05T09:09:01.075Z,99396.28
2022-08-05T09:11:52.110Z,99397.31
2022-08-05T09:14:57.544Z,99403.13
2022-08-05T09:17:41.294Z,99400.13
2022-08-05T09:20:02.927Z,99415.50
2022-08-05T09:23:09.235Z,99409.84
2022-08-05T09:26:01.629Z,99412.81
2022-08-05T09:28:31.450Z,99412.03
2022-08-05T09:31:22.570Z,99413.72
2022-08-05T09:33:58.676Z,99417.09
2022-08-05T09:36:53.990Z,99427.28
2022-08-05T09:39:39.275Z,99427.16
2022-08-05T09:42:23.500Z,99428.47
2022-08-05T09:45:17.791Z,99422.69
2022-08-05T09:47:54.961Z,99432.97
2022-08-05T09:50:37.771Z,99438.03
2022-08-05T09:53:08.753Z,99454.22
2022-08-05T09:55:56.774Z,99449.28
2022-08-05T09:58:30.544Z,99461.69
2022-08-05T10:01:01.925Z,99458.41
2022-08-05T10:03:59.291Z,99460.66
2022-08-05T10:06:28.791Z,99469.06
2022-08-05T10:09:10.519Z,99472.50
2022-08-05T10:12:18.898Z,99479.91
2022-08-05T10:15:20.670Z,99488.88
2022-08-05T10:18:11.113Z,99490.25
2022-08-05T10:20:44.142Z,99485.78
2022-08-05T10:23:34.209Z,99489.03
2022-08-05T10:26:14.501Z,99485.34
2022-08-05T10:28:47.899Z,99496.34
2022-08-05T10:32:50.555Z,99492.66
2022-08-05T10:34:08.073Z,99495.06
2022-08-05T10:36:38.836Z,99489.66
2022-08-05T10:39:15.113Z,99495.56
2022-08-05T10:42:01.231Z,99492.72
2022-08-05T10:44:33.404Z,99488.44
2022-08-05T10:47:26.228Z,99490.69
2022-08-05T10:50:32.225Z,99489.06
2022-08-05T10:53:01.085Z,99491.41
2022-08-05T10:55:32.883Z,99495.63
2022-08-05T10:58:21.299Z,99491.34
2022-08-05T11:00:55.083Z,99499.59
2022-08-05T11:03:29.276Z,99501.63
2022-08-05T11:06:08.456Z,99499.44
2022-08-05T11:09:16.895Z,99499.41
2022-08-05T11:11:53.151Z,99503.00
2022-08-05T11:14:57.802Z,99505.31
2022-08-05T11:17:57.163Z,99499.16
2022-08-05T11:20:37.449Z,99500.91
2022-08-05T11:23:33.549Z,99509.88
2022-08-05T11:26:28.626Z,99509.75
2022-08-05T11:29:06.775Z,99503.88
2022-08-05T11:31:58.293Z,99507.88
2022-08-05T11:34:51.846Z,99507.06
2022-08-05T11:38:26.716Z,99511.03
2022-08-05T11:41:34.206Z,99509.09
2022-08-05T11:44:07.213Z,99509.44
2022-08-05T11:47:11.726Z,99507.13
2022-08-05T11:49:27.692Z,99499.91
2022-08-05T11:51:57.982Z,99510.63
2022-08-05T11:54:33.341Z,99516.78
2022-08-05T11:57:08.013Z,99511.63
2022-08-05T11:59:54.626Z,99517.47
2022-08-05T12:02:31.409Z,99515.81
2022-08-05T12:05:07.471Z,99517.41
2022-08-05T12:08:09.215Z,99509.59
2022-08-05T12:10:38.465Z,99518.59
2022-08-05T12:13:18.580Z,99510.41
2022-08-05T12:15:56.999Z,99515.16
2022-08-05T12:18:34.574Z,99513.47
2022-08-05T12:21:12.351Z,99520.16
2022-08-05T12:23:53.241Z,99519.03
2022-08-05T12:26:23.175Z,99526.59
2022-08-05T12:28:52.851Z,99530.09
2022-08-05T12:31:28.066Z,99526.16
2022-08-05T12:34:03.570Z,99542.91
2022-08-05T12:36:32.616Z,99545.88
2022-08-05T12:39:05.492Z,99547.97
2022-08-05T12:41:43.620Z,99542.66
2022-08-05T12:44:28.520Z,99548.38
2022-08-05T12:47:03.748Z,99552.53
2022-08-05T12:50:04.037Z,99546.19
2022-08-05T12:52:38.539Z,99543.09
2022-08-05T12:55:25.357Z,99547.56
2022-08-05T12:58:50.214Z,99547.66
2022-08-05T13:02:03.285Z,99551.56
2022-08-05T13:03:42.202Z,99559.16
2022-08-05T13:06:16.074Z,99556.63
2022-08-05T13:08:51.621Z,99555.41
2022-08-05T13:11:25.436Z,99558.53
2022-08-05T13:14:19.245Z,99563.56
2022-08-05T13:16:56.539Z,99559.28
2022-08-05T13:19:27.418Z,99564.94
2022-08-05T13:22:28.298Z,99565.66
2022-08-05T13:25:05.637Z,99574.53
2022-08-05T13:27:40.926Z,99569.13
2022-08-05T13:30:34.107Z,99575.06
2022-08-05T13:33:00.927Z,99576.31
2022-08-05T13:35:42.603Z,99573.56
2022-08-05T13:38:28.148Z,99592.53
2022-08-05T13:41:00.514Z,99594.47
2022-08-05T13:43:45.652Z,99603.28
2022-08-05T13:46:30.852Z,99609.13
2022-08-05T13:49:10.261Z,99615.31
2022-08-05T13:51:46.658Z,99610.41
2022-08-05T13:54:17.127Z,99613.47
2022-08-05T13:56:51.511Z,99618.94
2022-08-05T13:59:27.184Z,99617.66
2022-08-05T14:02:00.739Z,99617.59
2022-08-05T14:04:49.392Z,99622.41
2022-08-05T14:07:25.451Z,99620.97
2022-08-05T14:10:13.804Z,99617.41
2022-08-05T14:12:48.611Z,99616.13
2022-08-05T14:16:08.518Z,99613.13
2022-08-05T14:18:15.172Z,99619.66
2022-08-05T14:20:48.322Z,99629.28
2022-08-05T14:23:24.515Z,99626.41
2022-08-05T14:25:59.127Z,99636.19
2022-08-05T14:28:29.456Z,99631.56
2022-08-05T14:31:01.038Z,99626.72
2022-08-05T14:33:57.021Z,99622.75
2022-08-05T14:36:20.529Z,99618.72
2022-08-05T14:38:50.907Z,99618.47
2022-08-05T14:41:20.015Z,99615.31
2022-08-05T14:43:57.798Z,99620.25
2022-08-05T14:46:34.999Z,99621.25
2022-08-05T14:49:07.301Z,99622.63
2022-08-05T14:51:37.977Z,99630.78
2022-08-05T14:54:28.098Z,99636.69
2022-08-05T14:56:57.109Z,99623.72
2022-08-05T14:59:29.097Z,99635.41
2022-08-05T15:01:59.992Z,99628.97
2022-08-05T15:04:29.300Z,99637.47
2022-08-05T15:06:58.283Z,99636.13
2022-08-05T15:09:52.169Z,99624.09
2022-08-05T15:12:16.726Z,99630.97
2022-08-05T15:14:56.512Z,99623.84
2022-08-05T15:17:47.202Z,99635.78
2022-08-05T15:20:18.738Z,99629.38
2022-08-05T15:22:54.179Z,99628.50
2022-08-05T15:25:51.637Z,99630.31
2022-08-05T15:28:14.722Z,99641.31
2022-08-05T15:30:45.714Z,99640.56
2022-08-05T15:33:56.893Z,99641.31
2022-08-05T15:36:16.917Z,99648.00
2022-08-05T15:38:46.969Z,99649.44
2022-08-05T15:41:21.523Z,99644.78
2022-08-05T15:43:55.076Z,99636.47
2022-08-05T15:46:25.140Z,99655.66
2022-08-05T15:49:00.640Z,99658.47
2022-08-05T15:52:03.651Z,99656.59
2022-08-05T15:54:20.188Z,99650.69
2022-08-05T15:57:03.932Z,99653.19
2022-08-05T15:59:38.235Z,99638.38
2022-08-05T16:02:14.783Z,99655.09
2022-08-05T16:04:50.130Z,99652.56
2022-08-05T16:07:18.703Z,99657.38
2022-08-05T16:09:54.187Z,99654.69
2022-08-05T16:12:22.937Z,99660.63
2022-08-05T16:14:52.270Z,99660.69
2022-08-05T16:17:20.819Z,99668.88
2022-08-05T16:20:05.723Z,99672.34
2022-08-05T16:22:39.676Z,99670.41
2022-08-05T16:25:10.819Z,99668.47
2022-08-05T16:28:00.362Z,99665.25
2022-08-05T16:30:30.742Z,99681.97
2022-08-05T16:33:01.856Z,99680.25
2022-08-05T16:35:34.648Z,99678.06
2022-08-05T16:38:24.452Z,99677.47
2022-08-05T16:41:00.529Z,99686.50
2022-08-05T16:43:32.128Z,99688.25
2022-08-05T16:46:04.152Z,99689.09
2022-08-05T16:48:37.931Z,99696.84
2022-08-05T16:51:10.764Z,99697.88
2022-08-05T16:54:05.771Z,99694.44
2022-08-05T16:56:34.605Z,99700.59
2022-08-05T16:59:08.122Z,99700.25
2022-08-05T17:01:53.650Z,99712.06
2022-08-05T17:04:26.553Z,99709.47
2022-08-05T17:07:01.271Z,99721.38
2022-08-05T17:09:38.887Z,99725.34
2022-08-05T17:12:51.369Z,99718.06
2022-08-05T17:15:15.816Z,99730.09
2022-08-05T17:17:54.708Z,99724.41
2022-08-05T17:20:25.062Z,99739.34
2022-08-05T17:22:57.492Z,99743.09
2022-08-05T17:25:39.860Z,99746.84
2022-08-05T17:28:09.927Z,99740.19
2022-08-05T17:30:50.692Z,99753.31
2022-08-05T17:33:21.297Z,99749.84
2022-08-05T17:36:07.793Z,99755.69
2022-08-05T17:38:40.265Z,99757.63
2022-08-05T18:23:45.587Z,99796.75
2022-08-05T18:26:18.181Z,99812.63
2022-08-05T18:28:47.483Z,99821.16
2022-08-05T18:31:16.909Z,99809.47
2022-08-05T18:33:47.221Z,99819.31
2022-08-05T18:36:19.472Z,99829.56
2022-08-05T18:38:49.471Z,99826.38
2022-08-05T18:41:55.688Z,99835.53
2022-08-05T18:44:12.841Z,99836.25
2022-08-05T18:46:43.173Z,99843.69
2022-08-05T18:49:30.360Z,99851.66
2022-08-05T18:52:16.753Z,99846.06
2022-08-05T18:54:48.550Z,99849.75
2022-08-05T18:57:19.726Z,99861.81
2022-08-05T19:00:07.521Z,99865.44
2022-08-05T19:02:48.843Z,99859.06
2022-08-05T19:06:06.312Z,99864.69
2022-08-05T19:08:13.649Z,99869.41
2022-08-05T19:10:45.889Z,99877.88
2022-08-05T19:13:15.975Z,99881.16
2022-08-05T19:15:59.347Z,99887.00
2022-08-05T19:18:32.198Z,99897.44
2022-08-05T19:21:00.865Z,99898.69
2022-08-05T19:24:07.943Z,99901.78
2022-08-05T19:26:27.760Z,99910.03
2022-08-05T19:28:56.634Z,99909.19
2022-08-05T19:31:25.810Z,99918.66
2022-08-05T19:33:56.845Z,99914.88
2022-08-05T19:36:26.388Z,99916.03
2022-08-05T19:39:00.736Z,99927.19
2022-08-05T19:41:57.984Z,99919.38
2022-08-05T19:44:20.746Z,99938.13
2022-08-05T19:46:50.137Z,99935.03
2022-08-05T19:49:19.293Z,99940.13
2022-08-05T19:52:05.821Z,99946.34
2022-08-05T19:54:37.258Z,99948.34
2022-08-05T19:57:09.940Z,99963.09
2022-08-05T19:59:56.618Z,99943.84
2022-08-05T20:02:31.395Z,99964.75
2022-08-05T20:05:00.641Z,99967.53
2022-08-05T20:07:46.647Z,99962.06
2022-08-05T20:10:19.317Z,99981.47
2022-08-05T20:12:52.157Z,99982.06
2022-08-05T20:15:22.992Z,99988.53
2022-08-05T20:18:33.791Z,99998.69
2022-08-05T20:21:00.030Z,99999.38
2022-08-05T20:23:39.727Z,100005.25
2022-08-05T20:26:18.374Z,100005.13
2022-08-05T20:28:50.710Z,100000.00
2022-08-05T20:31:21.593Z,100005.47
2022-08-05T20:33:52.022Z,100013.00
2022-08-05T20:36:21.859Z,100015.59
2022-08-05T20:38:54.554Z,100023.84
2022-08-05T20:41:43.124Z,100016.47
2022-08-05T20:44:19.037Z,100015.94
2022-08-05T20:47:01.075Z,100015.47
2022-08-05T20:49:29.646Z,100020.88
2022-08-05T20:52:01.968Z,100030.13
2022-08-05T20:54:59.963Z,100030.31
2022-08-05T20:57:42.172Z,100034.78
2022-08-05T21:00:41.381Z,100035.19
2022-08-05T21:03:06.221Z,100037.13
2022-08-05T21:05:47.542Z,100040.75
2022-08-05T21:08:26.490Z,100045.56
2022-08-05T21:10:58.310Z,100050.94
2022-08-05T21:13:48.055Z,100049.31
2022-08-05T21:16:22.402Z,100057.56
2022-08-05T21:19:00.120Z,100064.81
2022-08-05T21:21:39.352Z,100076.47
2022-08-05T21:24:15.323Z,100071.59
2022-08-05T21:26:53.140Z,100072.19
2022-08-05T21:29:23.601Z,100072.28
2022-08-05T21:31:57.041Z,100077.78
2022-08-05T21:34:26.524Z,100072.53
2022-08-05T21:36:57.042Z,100072.03
2022-08-05T21:39:26.785Z,100075.00
2022-08-05T21:42:01.079Z,100075.91
2022-08-05T21:44:31.791Z,100080.63
2022-08-05T21:47:02.486Z,100084.31
2022-08-05T21:50:00.348Z,100080.88
2022-08-05T21:52:27.632Z,100080.75
2022-08-05T21:55:06.839Z,100091.44
2022-08-05T21:57:36.075Z,100088.00
2022-08-05T22:00:10.912Z,100088.97
2022-08-05T22:02:44.445Z,100084.69
2022-08-05T22:05:14.485Z,100089.50
2022-08-05T22:07:59.002Z,100085.34
2022-08-05T22:10:31.155Z,100089.44
2022-08-05T22:14:05.026Z,100089.88
2022-08-05T22:16:01.060Z,100093.69
2022-08-05T22:18:39.019Z,100091.56
2022-08-05T22:21:18.701Z,100094.22
2022-08-05T22:24:08.957Z,100105.69
2022-08-05T22:26:58.970Z,100097.19
2022-08-05T22:29:32.827Z,100104.13
2022-08-05T22:32:03.297Z,100106.22
2022-08-05T22:34:33.999Z,100109.91
2022-08-05T22:37:03.981Z,100112.41
2022-08-05T22:39:34.551Z,100111.75
2022-08-05T22:42:11.512Z,100111.72
2022-08-05T22:44:48.248Z,100118.72
2022-08-05T22:47:29.237Z,100124.78
2022-08-05T22:50:21.399Z,100125.50
2022-08-05T22:52:51.446Z,100125.41
2022-08-05T22:55:22.267Z,100125.63
2022-08-05T22:57:51.577Z,100130.91
2022-08-05T23:00:22.486Z,100145.06
2022-08-05T23:02:53.330Z,100147.78
2022-08-05T23:05:24.191Z,100148.06
2022-08-05T23:07:53.653Z,100159.94
2022-08-05T23:10:23.884Z,100159.34
2022-08-05T23:12:55.590Z,100162.38
2022-08-05T23:15:26.941Z,100163.53
2022-08-05T23:18:02.082Z,100164.41
2022-08-05T23:20:37.442Z,100180.53
2022-08-05T23:23:08.576Z,100171.63
2022-08-05T23:25:51.257Z,100175.34
2022-08-05T23:28:29.078Z,100181.09
2022-08-05T23:31:02.362Z,100180.69
2022-08-05T23:34:03.932Z,100190.81
2022-08-05T23:36:40.103Z,100187.38
2022-08-05T23:39:17.398Z,100194.53
2022-08-05T23:42:01.361Z,100193.78
2022-08-05T23:44:31.502Z,100198.13
2022-08-05T23:47:02.639Z,100200.69
2022-08-05T23:49:44.266Z,100204.19
2022-08-05T23:52:30.483Z,100198.31
2022-08-05T23:55:02.184Z,100194.09
2022-08-05T23:57:34.663Z,100190.66
